Terminal Aerodrome Forecast
Issued by NWS

Home | Current Version | Previous Version | Text Only | Print | Product List | Glossary Off
Versions: 1 2 3 4 5 6 7 8 9 10 11 12 13 14 15 16

000
FTUS43 KIWX 230400 AAA
TAFSBN
TAF AMD
KSBN 230402Z 2304/2324 24007KT P6SM VCTS BKN040CB
      TEMPO 2305/2307 2SM +TSRA OVC015CB
     FM230800 34012KT P6SM OVC035
     FM231500 35015G20KT P6SM SCT035=

USA.gov is the U.S. government's official web portal to all federal, state and local government web resources and services.